Time;durP1;ratioP1;P1;durP2;ratioP2;P2;SDS_P1;SDS_P2;PMS_P1;PMS_P2;Temp;Humidity;BMP_temperature;BMP_pressure;BME280_temperature;BME280_humidity;BME280_pressure;Samples;Min_cycle;Max_cycle;Signal;HPM_P1;HPM_P2
2022/07/07 00:00:16;;;;;;;;;;;26.70;38.90;;;;;;1583864;74;1688;-66
2022/07/07 00:02:18;;;;;;;;;;;26.70;39.00;;;;;;1587425;73;856;-66
2022/07/07 00:04:20;;;;;;;;;;;26.80;39.00;;;;;;1588858;73;1160;-63
2022/07/07 00:06:22;;;;;;;;;;;26.80;38.90;;;;;;1590949;73;559;-67
2022/07/07 00:08:24;;;;;;;;;;;26.80;38.90;;;;;;1587819;74;1937;-66
2022/07/07 00:10:25;;;;;;;;;;;26.80;38.90;;;;;;1588286;73;783;-65
2022/07/07 00:12:27;;;;;;;;;;;26.90;39.00;;;;;;1588850;75;670;-63
2022/07/07 00:14:31;;;;;;;;;;;26.90;38.90;;;;;;1589385;73;1441;-66
2022/07/07 00:16:33;;;;;;;;;;;26.90;38.90;;;;;;1583180;74;668;-67
2022/07/07 00:18:35;;;;;;;;;;;26.90;39.00;;;;;;1587706;73;836;-67
2022/07/07 00:20:36;;;;;;;;;;;26.90;39.00;;;;;;1589083;75;691;-65
2022/07/07 00:22:38;;;;;;;;;;;26.90;39.00;;;;;;1586082;73;778;-65
2022/07/07 00:24:40;;;;;;;;;;;26.90;39.00;;;;;;1588837;73;1206;-66
2022/07/07 00:26:42;;;;;;;;;;;27.00;39.70;;;;;;1579367;73;1934;-65
2022/07/07 00:28:44;;;;;;;;;;;26.90;39.00;;;;;;1589490;73;797;-65
2022/07/07 00:30:46;;;;;;;;;;;26.90;39.00;;;;;;1588880;73;686;-65
2022/07/07 00:32:48;;;;;;;;;;;26.90;39.10;;;;;;1583170;74;799;-67
2022/07/07 00:34:50;;;;;;;;;;;26.90;39.10;;;;;;1583536;73;1173;-66
2022/07/07 00:36:51;;;;;;;;;;;26.90;39.10;;;;;;1587734;74;811;-66
2022/07/07 00:38:53;;;;;;;;;;;26.80;39.20;;;;;;1588757;73;833;-66
2022/07/07 00:40:55;;;;;;;;;;;26.90;39.20;;;;;;1588845;73;1580;-66
2022/07/07 00:42:57;;;;;;;;;;;26.90;39.20;;;;;;1583825;73;635;-65
2022/07/07 00:44:59;;;;;;;;;;;26.90;39.30;;;;;;1596475;73;1154;-63
2022/07/07 00:47:01;;;;;;;;;;;26.90;39.40;;;;;;1586600;75;1967;-66
2022/07/07 00:49:03;;;;;;;;;;;26.90;39.40;;;;;;1588670;73;829;-67
2022/07/07 00:51:05;;;;;;;;;;;26.90;39.40;;;;;;1588144;73;739;-66
2022/07/07 00:53:07;;;;;;;;;;;26.90;39.40;;;;;;1584840;74;852;-65
2022/07/07 00:55:09;;;;;;;;;;;26.90;39.40;;;;;;1601279;73;1622;-66
2022/07/07 00:57:11;;;;;;;;;;;27.00;40.00;;;;;;1588654;73;682;-68
2022/07/07 00:59:13;;;;;;;;;;;26.90;39.30;;;;;;1588243;73;777;-67
2022/07/07 01:01:15;;;;;;;;;;;26.80;39.40;;;;;;1591031;73;750;-67
2022/07/07 01:03:16;;;;;;;;;;;26.90;39.40;;;;;;1587769;74;649;-68
2022/07/07 01:05:18;;;;;;;;;;;26.90;39.40;;;;;;1583058;73;1093;-69
2022/07/07 01:07:20;;;;;;;;;;;26.90;39.40;;;;;;1588963;74;1929;-67
2022/07/07 01:09:22;;;;;;;;;;;26.90;39.40;;;;;;1587400;74;1423;-66
2022/07/07 01:11:24;;;;;;;;;;;26.90;39.40;;;;;;1588961;74;700;-65
2022/07/07 01:13:26;;;;;;;;;;;26.90;39.40;;;;;;1587587;73;783;-66
2022/07/07 01:15:28;;;;;;;;;;;26.80;39.60;;;;;;1590246;73;1131;-67
2022/07/07 01:17:30;;;;;;;;;;;26.80;39.70;;;;;;1586203;75;793;-65
2022/07/07 01:19:32;;;;;;;;;;;26.80;39.70;;;;;;1585953;73;739;-68
2022/07/07 01:21:34;;;;;;;;;;;26.90;39.70;;;;;;1588255;74;817;-65
2022/07/07 01:23:36;;;;;;;;;;;26.90;39.60;;;;;;1588293;74;1543;-66
2022/07/07 01:25:38;;;;;;;;;;;26.90;39.70;;;;;;1588325;73;1174;-65
2022/07/07 01:27:40;;;;;;;;;;;26.80;39.70;;;;;;1585297;73;1945;-66
2022/07/07 01:29:43;;;;;;;;;;;26.80;39.70;;;;;;1588121;74;746;-67
2022/07/07 01:31:44;;;;;;;;;;;26.80;39.80;;;;;;1585380;75;740;-68
2022/07/07 01:33:46;;;;;;;;;;;26.80;39.70;;;;;;1586882;75;819;-66
2022/07/07 01:35:48;;;;;;;;;;;26.80;39.70;;;;;;1577242;70;229652;-64
2022/07/07 01:37:50;;;;;;;;;;;26.90;39.80;;;;;;1580039;74;1464;-63
2022/07/07 01:39:52;;;;;;;;;;;26.80;39.80;;;;;;1583039;73;752;-64
2022/07/07 01:41:54;;;;;;;;;;;26.80;39.80;;;;;;1578003;74;699;-64
2022/07/07 01:43:56;;;;;;;;;;;26.90;39.80;;;;;;1573630;74;644;-67
2022/07/07 01:45:58;;;;;;;;;;;26.80;39.80;;;;;;1571332;74;1149;-67
2022/07/07 01:47:59;;;;;;;;;;;26.90;39.70;;;;;;1574768;75;1940;-67
2022/07/07 01:50:01;;;;;;;;;;;26.80;39.60;;;;;;1570363;75;745;-64
2022/07/07 01:52:03;;;;;;;;;;;26.80;39.60;;;;;;1565114;74;1477;-67
2022/07/07 01:54:05;;;;;;;;;;;26.80;39.60;;;;;;1576466;74;756;-68
2022/07/07 01:56:10;;;;;;;;;;;26.70;39.60;;;;;;1571322;75;1152;-69
2022/07/07 01:58:13;;;;;;;;;;;26.70;39.70;;;;;;1575305;74;686;-68
2022/07/07 02:00:16;;;;;;;;;;;26.70;39.70;;;;;;1585803;74;702;-69
2022/07/07 02:02:17;;;;;;;;;;;26.70;39.80;;;;;;1568891;75;741;-68
2022/07/07 02:04:19;;;;;;;;;;;26.60;39.70;;;;;;1572565;75;723;-68
2022/07/07 02:06:21;;;;;;;;;;;26.70;39.70;;;;;;1573392;74;1506;-71
2022/07/07 02:08:23;;;;;;;;;;;26.70;39.70;;;;;;1577977;75;1922;-68
2022/07/07 02:12:45;;;;;;;;;;;26.60;39.70;;;;;;1561960;74;1641;-68
2022/07/07 02:14:47;;;;;;;;;;;26.60;39.70;;;;;;1562629;75;703;-65
2022/07/07 02:16:49;;;;;;;;;;;26.60;39.70;;;;;;1575261;74;1106;-68
2022/07/07 02:18:53;;;;;;;;;;;26.60;39.70;;;;;;1573126;74;821;-68
2022/07/07 02:20:55;;;;;;;;;;;26.50;39.60;;;;;;1578299;74;1621;-69
2022/07/07 02:22:57;;;;;;;;;;;26.50;39.60;;;;;;1578099;74;773;-70
2022/07/07 02:24:58;;;;;;;;;;;26.50;39.70;;;;;;1580027;74;777;-68
2022/07/07 02:27:00;;;;;;;;;;;26.50;39.70;;;;;;1570690;75;1074;-68
2022/07/07 02:29:03;;;;;;;;;;;26.50;39.60;;;;;;1578625;75;1946;-68
2022/07/07 02:31:04;;;;;;;;;;;26.60;39.60;;;;;;1574668;74;776;-68
2022/07/07 02:33:06;;;;;;;;;;;26.50;39.60;;;;;;1576269;74;718;-67
2022/07/07 02:35:08;;;;;;;;;;;26.50;39.50;;;;;;1574425;74;1735;-65
2022/07/07 02:37:10;;;;;;;;;;;26.50;39.50;;;;;;1578774;75;723;-67
2022/07/07 02:39:12;;;;;;;;;;;26.50;39.40;;;;;;1575878;74;765;-68
2022/07/07 02:41:14;;;;;;;;;;;26.50;39.40;;;;;;1566719;74;734;-68
2022/07/07 02:43:16;;;;;;;;;;;26.50;39.40;;;;;;1567805;74;778;-68
2022/07/07 02:45:18;;;;;;;;;;;26.50;39.50;;;;;;1577343;74;1159;-68
2022/07/07 02:47:20;;;;;;;;;;;26.60;39.40;;;;;;1570768;74;717;-67
2022/07/07 02:49:22;;;;;;;;;;;26.50;39.40;;;;;;1575233;74;1909;-67
2022/07/07 02:51:24;;;;;;;;;;;26.50;39.30;;;;;;1571700;74;780;-67
2022/07/07 02:53:27;;;;;;;;;;;26.50;39.40;;;;;;1562892;75;1090;-66
2022/07/07 02:55:29;;;;;;;;;;;26.50;39.40;;;;;;1573127;74;1119;-67
2022/07/07 02:57:32;;;;;;;;;;;26.50;39.40;;;;;;1580749;74;768;-70
2022/07/07 02:59:34;;;;;;;;;;;26.50;39.40;;;;;;1564172;74;774;-66
2022/07/07 03:01:36;;;;;;;;;;;26.50;39.40;;;;;;1577919;75;735;-70
2022/07/07 03:03:38;;;;;;;;;;;26.50;39.30;;;;;;1573668;74;834;-67
2022/07/07 03:05:40;;;;;;;;;;;26.50;39.40;;;;;;1568240;74;1119;-65
2022/07/07 03:07:42;;;;;;;;;;;26.50;39.40;;;;;;1561964;74;1921;-66
2022/07/07 03:09:44;;;;;;;;;;;26.50;39.40;;;;;;1581460;74;738;-67
2022/07/07 03:11:46;;;;;;;;;;;26.50;39.40;;;;;;1576035;74;734;-66
2022/07/07 03:13:47;;;;;;;;;;;26.50;39.30;;;;;;1573234;75;774;-67
2022/07/07 03:15:49;;;;;;;;;;;26.50;39.30;;;;;;1576963;75;1137;-65
2022/07/07 03:17:52;;;;;;;;;;;26.50;39.30;;;;;;1578550;74;591;-71
2022/07/07 03:19:53;;;;;;;;;;;26.50;39.30;;;;;;1568070;74;707;-69
2022/07/07 03:21:55;;;;;;;;;;;26.50;39.30;;;;;;1570013;74;757;-67
2022/07/07 03:23:57;;;;;;;;;;;26.50;39.40;;;;;;1576733;74;782;-67
2022/07/07 03:25:59;;;;;;;;;;;26.50;39.40;;;;;;1573103;75;1162;-68
2022/07/07 03:28:01;;;;;;;;;;;26.50;39.20;;;;;;1577555;74;1933;-67
2022/07/07 03:30:03;;;;;;;;;;;26.50;39.20;;;;;;1571493;74;746;-69
2022/07/07 03:32:06;;;;;;;;;;;26.50;39.20;;;;;;1572292;74;625;-68
2022/07/07 03:34:08;;;;;;;;;;;26.50;39.20;;;;;;1574177;74;811;-71
2022/07/07 03:36:09;;;;;;;;;;;26.60;39.20;;;;;;1573632;75;1168;-68
2022/07/07 03:38:11;;;;;;;;;;;26.50;39.20;;;;;;1575657;75;1064;-68
2022/07/07 03:40:13;;;;;;;;;;;26.50;39.20;;;;;;1576959;75;728;-71
2022/07/07 03:42:15;;;;;;;;;;;26.50;39.20;;;;;;1572092;74;740;-72
2022/07/07 03:44:17;;;;;;;;;;;26.50;39.20;;;;;;1575342;75;823;-69
2022/07/07 03:46:19;;;;;;;;;;;26.50;39.10;;;;;;1576274;74;1116;-68
2022/07/07 03:48:21;;;;;;;;;;;26.40;39.20;;;;;;1575098;75;1933;-68
2022/07/07 03:50:22;;;;;;;;;;;26.50;39.30;;;;;;1580124;74;670;-67
2022/07/07 03:52:24;;;;;;;;;;;26.50;39.40;;;;;;1567935;74;714;-69
2022/07/07 03:54:26;;;;;;;;;;;26.50;39.40;;;;;;1575880;73;645;-69
2022/07/07 03:56:28;;;;;;;;;;;26.50;39.40;;;;;;1573084;73;1105;-70
2022/07/07 03:58:30;;;;;;;;;;;26.50;39.30;;;;;;1578087;74;732;-67
2022/07/07 04:00:32;;;;;;;;;;;26.50;39.40;;;;;;1578354;75;795;-68
2022/07/07 04:02:35;;;;;;;;;;;26.50;39.50;;;;;;1573199;75;691;-67
2022/07/07 04:04:37;;;;;;;;;;;26.50;39.40;;;;;;1573091;74;800;-66
2022/07/07 04:06:39;;;;;;;;;;;26.50;39.40;;;;;;1578292;75;1082;-67
2022/07/07 04:08:40;;;;;;;;;;;26.50;39.30;;;;;;1568078;74;1942;-68
2022/07/07 04:10:42;;;;;;;;;;;26.40;39.40;;;;;;1571115;73;783;-66
2022/07/07 04:12:44;;;;;;;;;;;26.50;39.40;;;;;;1569646;75;713;-69
2022/07/07 04:14:46;;;;;;;;;;;26.40;39.30;;;;;;1561621;75;634;-67
2022/07/07 04:16:48;;;;;;;;;;;26.50;39.30;;;;;;1568665;75;1131;-70
2022/07/07 04:18:50;;;;;;;;;;;26.50;39.30;;;;;;1561862;75;767;-66
2022/07/07 04:20:52;;;;;;;;;;;26.50;39.20;;;;;;1572605;74;703;-67
2022/07/07 04:22:54;;;;;;;;;;;26.40;39.30;;;;;;1572567;74;801;-70
2022/07/07 04:24:55;;;;;;;;;;;26.40;39.30;;;;;;1564062;75;723;-67
2022/07/07 04:26:57;;;;;;;;;;;26.40;39.40;;;;;;1567188;74;1119;-68
2022/07/07 04:28:59;;;;;;;;;;;26.40;39.30;;;;;;1567933;75;1949;-68
2022/07/07 04:31:01;;;;;;;;;;;26.50;39.20;;;;;;1571488;74;751;-70
2022/07/07 04:33:03;;;;;;;;;;;26.40;39.20;;;;;;1578006;75;751;-65
2022/07/07 04:35:05;;;;;;;;;;;26.50;39.20;;;;;;1572491;75;780;-65
2022/07/07 04:37:07;;;;;;;;;;;26.40;39.10;;;;;;1578374;75;843;-66
2022/07/07 04:39:09;;;;;;;;;;;26.40;39.10;;;;;;1568376;73;736;-66
2022/07/07 04:41:11;;;;;;;;;;;26.30;39.10;;;;;;1576613;75;815;-66
2022/07/07 04:43:13;;;;;;;;;;;26.30;38.90;;;;;;1576461;74;736;-66
2022/07/07 04:45:14;;;;;;;;;;;26.30;39.10;;;;;;1572518;74;1584;-67
2022/07/07 04:47:16;;;;;;;;;;;26.20;39.00;;;;;;1580818;74;738;-65
2022/07/07 04:49:18;;;;;;;;;;;26.30;38.80;;;;;;1578366;75;1928;-64
2022/07/07 04:51:20;;;;;;;;;;;26.30;38.70;;;;;;1578473;74;795;-65
2022/07/07 04:53:22;;;;;;;;;;;26.20;38.70;;;;;;1570177;75;757;-66
2022/07/07 04:55:24;;;;;;;;;;;26.20;38.80;;;;;;1562638;74;1160;-65
2022/07/07 04:57:26;;;;;;;;;;;26.30;38.90;;;;;;1568316;75;774;-66
2022/07/07 04:59:28;;;;;;;;;;;26.30;38.90;;;;;;1568260;74;640;-65
2022/07/07 05:01:30;;;;;;;;;;;26.30;38.90;;;;;;1568695;74;749;-68
2022/07/07 05:03:31;;;;;;;;;;;26.30;38.90;;;;;;1573763;74;661;-65
2022/07/07 05:05:33;;;;;;;;;;;26.30;38.90;;;;;;1569544;75;1127;-64
2022/07/07 05:07:35;;;;;;;;;;;26.30;38.90;;;;;;1576086;75;713;-64
2022/07/07 05:09:37;;;;;;;;;;;26.30;39.00;;;;;;1581161;74;1929;-64
2022/07/07 05:11:39;;;;;;;;;;;26.20;39.00;;;;;;1576288;75;802;-65
2022/07/07 05:13:41;;;;;;;;;;;26.30;39.00;;;;;;1573363;74;627;-66
2022/07/07 05:15:43;;;;;;;;;;;26.30;38.80;;;;;;1574621;74;1112;-69
2022/07/07 05:17:45;;;;;;;;;;;26.30;38.80;;;;;;1578074;74;787;-67
2022/07/07 05:19:46;;;;;;;;;;;26.20;38.70;;;;;;1574038;75;697;-66
2022/07/07 05:21:48;;;;;;;;;;;26.20;38.60;;;;;;1565791;74;785;-67
2022/07/07 05:23:50;;;;;;;;;;;26.30;38.60;;;;;;1576365;74;809;-69
2022/07/07 05:25:52;;;;;;;;;;;26.30;38.60;;;;;;1564842;74;1134;-68
2022/07/07 05:27:54;;;;;;;;;;;26.30;38.60;;;;;;1568190;75;724;-68
2022/07/07 05:29:56;;;;;;;;;;;26.20;38.60;;;;;;1574044;75;1931;-69
2022/07/07 05:31:58;;;;;;;;;;;26.20;38.50;;;;;;1564334;75;785;-68
2022/07/07 05:34:00;;;;;;;;;;;26.10;38.50;;;;;;1578513;75;740;-67
2022/07/07 05:36:02;;;;;;;;;;;26.10;38.50;;;;;;1568618;74;1156;-68
2022/07/07 05:38:04;;;;;;;;;;;26.10;38.50;;;;;;1578187;74;1016;-67
2022/07/07 05:40:06;;;;;;;;;;;26.10;38.50;;;;;;1574698;74;1444;-66
2022/07/07 05:42:08;;;;;;;;;;;26.20;38.40;;;;;;1576314;74;670;-67
2022/07/07 05:44:10;;;;;;;;;;;26.10;38.40;;;;;;1578748;74;710;-68
2022/07/07 05:46:12;;;;;;;;;;;26.10;38.40;;;;;;1569137;74;1086;-68
2022/07/07 05:48:14;;;;;;;;;;;26.10;38.40;;;;;;1573477;74;773;-69
2022/07/07 05:50:16;;;;;;;;;;;26.10;38.40;;;;;;1579111;74;1935;-66
2022/07/07 05:52:17;;;;;;;;;;;26.00;38.40;;;;;;1574320;75;784;-68
2022/07/07 05:54:19;;;;;;;;;;;26.10;38.40;;;;;;1572959;75;719;-67
2022/07/07 05:56:22;;;;;;;;;;;26.10;38.50;;;;;;1574828;74;1126;-67
2022/07/07 05:58:24;;;;;;;;;;;26.10;38.60;;;;;;1572737;74;796;-67
2022/07/07 06:00:27;;;;;;;;;;;26.00;38.60;;;;;;1572173;75;703;-66
2022/07/07 06:02:29;;;;;;;;;;;26.00;38.50;;;;;;1574469;74;725;-67
2022/07/07 06:04:31;;;;;;;;;;;26.00;38.60;;;;;;1569671;74;815;-67
2022/07/07 06:06:32;;;;;;;;;;;25.90;38.10;;;;;;1578505;74;1157;-67
2022/07/07 06:08:38;;;;;;;;;;;26.00;38.60;;;;;;1567292;74;691;-68
2022/07/07 06:10:38;;;;;;;;;;;26.00;38.50;;;;;;1578917;74;1905;-67
2022/07/07 06:12:40;;;;;;;;;;;26.00;38.60;;;;;;1576871;74;615;-69
2022/07/07 06:14:42;;;;;;;;;;;26.00;38.60;;;;;;1570897;74;846;-65
2022/07/07 06:16:44;;;;;;;;;;;25.90;38.00;;;;;;1579629;74;1134;-67
2022/07/07 06:18:46;;;;;;;;;;;26.00;38.60;;;;;;1563158;75;792;-67
2022/07/07 06:20:47;;;;;;;;;;;26.00;38.60;;;;;;1579297;75;776;-67
2022/07/07 06:22:49;;;;;;;;;;;25.90;38.00;;;;;;1577453;74;764;-68
2022/07/07 06:24:51;;;;;;;;;;;25.90;37.90;;;;;;1567040;75;711;-65
2022/07/07 06:26:53;;;;;;;;;;;25.90;37.90;;;;;;1573284;74;1084;-68
2022/07/07 06:28:55;;;;;;;;;;;25.90;37.90;;;;;;1577316;75;1924;-68
2022/07/07 06:30:57;;;;;;;;;;;26.00;38.40;;;;;;1578756;74;710;-67
2022/07/07 06:32:59;;;;;;;;;;;26.00;38.50;;;;;;1571345;75;665;-67
2022/07/07 06:35:00;;;;;;;;;;;25.90;37.90;;;;;;1566765;75;708;-68
2022/07/07 06:37:02;;;;;;;;;;;25.90;38.00;;;;;;1572270;74;1477;-68
2022/07/07 06:39:04;;;;;;;;;;;26.00;38.50;;;;;;1581432;74;824;-65
2022/07/07 06:41:06;;;;;;;;;;;25.90;38.00;;;;;;1579168;74;702;-66
2022/07/07 06:43:08;;;;;;;;;;;25.90;37.90;;;;;;1572679;74;748;-65
2022/07/07 06:45:10;;;;;;;;;;;25.90;37.90;;;;;;1571402;75;1188;-64
2022/07/07 06:47:12;;;;;;;;;;;25.90;38.00;;;;;;1578008;74;750;-66
2022/07/07 06:49:14;;;;;;;;;;;25.90;37.90;;;;;;1582903;74;1929;-65
2022/07/07 06:51:16;;;;;;;;;;;25.90;37.90;;;;;;1571157;75;720;-65
2022/07/07 06:53:18;;;;;;;;;;;25.90;37.90;;;;;;1568663;74;693;-66
2022/07/07 06:55:20;;;;;;;;;;;25.90;37.90;;;;;;1574532;74;1143;-63
2022/07/07 06:57:21;;;;;;;;;;;25.90;37.90;;;;;;1576173;75;727;-65
2022/07/07 06:59:23;;;;;;;;;;;25.90;37.80;;;;;;1581463;74;733;-65
2022/07/07 07:01:25;;;;;;;;;;;25.90;37.80;;;;;;1581700;74;811;-66
2022/07/07 07:03:27;;;;;;;;;;;25.90;37.80;;;;;;1565679;74;666;-65
2022/07/07 07:05:29;;;;;;;;;;;25.90;37.80;;;;;;1570306;74;1144;-64
2022/07/07 07:07:31;;;;;;;;;;;25.90;37.80;;;;;;1576796;75;695;-65
2022/07/07 07:09:34;;;;;;;;;;;25.90;37.80;;;;;;1575104;75;1922;-65
2022/07/07 07:11:36;;;;;;;;;;;25.90;37.80;;;;;;1557928;74;931;-67
2022/07/07 07:13:37;;;;;;;;;;;25.90;37.80;;;;;;1544482;75;737;-66
2022/07/07 07:15:39;;;;;;;;;;;25.90;37.80;;;;;;1568297;74;1092;-65
2022/07/07 07:17:42;;;;;;;;;;;25.90;37.80;;;;;;1590160;74;722;-65
2022/07/07 07:19:44;;;;;;;;;;;25.90;37.80;;;;;;1569382;74;1300;-64
2022/07/07 07:21:46;;;;;;;;;;;25.90;37.80;;;;;;1578507;75;827;-66
2022/07/07 07:23:48;;;;;;;;;;;25.90;37.80;;;;;;1574753;75;688;-65
2022/07/07 07:25:50;;;;;;;;;;;25.90;37.80;;;;;;1579295;74;1154;-65
2022/07/07 07:27:52;;;;;;;;;;;25.90;37.80;;;;;;1567779;74;660;-66
2022/07/07 07:29:54;;;;;;;;;;;25.90;37.80;;;;;;1579153;75;1924;-64
2022/07/07 07:31:55;;;;;;;;;;;25.90;37.80;;;;;;1575512;74;650;-65
2022/07/07 07:33:57;;;;;;;;;;;25.90;37.80;;;;;;1575046;75;1404;-64
2022/07/07 07:35:59;;;;;;;;;;;25.90;37.80;;;;;;1572781;74;1143;-65
2022/07/07 07:38:01;;;;;;;;;;;25.90;37.80;;;;;;1569905;75;727;-66
2022/07/07 07:40:03;;;;;;;;;;;25.90;37.80;;;;;;1576110;75;831;-65
2022/07/07 07:42:06;;;;;;;;;;;25.90;37.80;;;;;;1577718;74;769;-65
2022/07/07 07:44:07;;;;;;;;;;;25.90;37.80;;;;;;1573438;74;609;-66
2022/07/07 07:46:09;;;;;;;;;;;25.90;37.80;;;;;;1569959;75;1200;-65
2022/07/07 07:48:11;;;;;;;;;;;25.70;37.80;;;;;;1573585;74;677;-65
2022/07/07 07:50:14;;;;;;;;;;;25.90;37.80;;;;;;1579034;75;1938;-66
2022/07/07 07:52:15;;;;;;;;;;;25.80;37.80;;;;;;1571184;75;677;-64
2022/07/07 07:54:17;;;;;;;;;;;25.90;37.80;;;;;;1578002;75;715;-65
2022/07/07 07:56:19;;;;;;;;;;;25.80;37.80;;;;;;1576317;74;1130;-64
2022/07/07 07:58:21;;;;;;;;;;;25.90;37.80;;;;;;1567405;75;707;-65
2022/07/07 08:00:23;;;;;;;;;;;25.80;37.80;;;;;;1578969;75;757;-65
2022/07/07 08:02:25;;;;;;;;;;;25.80;37.80;;;;;;1564793;75;675;-65
2022/07/07 08:04:27;;;;;;;;;;;25.80;37.80;;;;;;1565579;75;676;-65
2022/07/07 08:06:29;;;;;;;;;;;25.80;37.70;;;;;;1583187;74;1152;-65
2022/07/07 08:08:30;;;;;;;;;;;25.80;37.80;;;;;;1569888;74;728;-65
2022/07/07 08:10:32;;;;;;;;;;;25.80;37.80;;;;;;1575684;75;1938;-65
2022/07/07 08:12:35;;;;;;;;;;;25.80;37.80;;;;;;1579247;75;694;-65
2022/07/07 08:14:36;;;;;;;;;;;25.80;37.80;;;;;;1569007;75;797;-65
2022/07/07 08:16:38;;;;;;;;;;;25.80;37.80;;;;;;1579056;74;1096;-66
2022/07/07 08:18:40;;;;;;;;;;;25.80;37.70;;;;;;1580032;74;575;-65
2022/07/07 08:20:42;;;;;;;;;;;25.80;37.70;;;;;;1570060;75;700;-66
2022/07/07 08:22:44;;;;;;;;;;;25.90;37.60;;;;;;1576288;75;706;-66
2022/07/07 08:24:46;;;;;;;;;;;25.80;37.60;;;;;;1571305;75;721;-65
2022/07/07 08:26:48;;;;;;;;;;;25.80;37.60;;;;;;1579491;74;1131;-67
2022/07/07 08:28:49;;;;;;;;;;;25.80;37.60;;;;;;1574647;75;1460;-65
2022/07/07 08:30:51;;;;;;;;;;;25.80;37.60;;;;;;1577840;74;1978;-65
2022/07/07 08:32:53;;;;;;;;;;;25.80;37.60;;;;;;1563843;75;768;-66
2022/07/07 08:34:55;;;;;;;;;;;25.90;37.50;;;;;;1569691;75;731;-66
2022/07/07 08:36:57;;;;;;;;;;;25.80;37.50;;;;;;1576936;74;1110;-64
2022/07/07 08:38:59;;;;;;;;;;;25.90;37.50;;;;;;1581993;74;714;-64
2022/07/07 08:41:01;;;;;;;;;;;25.90;37.30;;;;;;1576568;75;767;-66
2022/07/07 08:43:02;;;;;;;;;;;25.90;37.30;;;;;;1573091;74;718;-66
2022/07/07 08:45:05;;;;;;;;;;;25.80;37.20;;;;;;1572671;75;763;-66
2022/07/07 08:47:07;;;;;;;;;;;25.80;37.10;;;;;;1572252;74;1124;-66
2022/07/07 08:49:10;;;;;;;;;;;25.80;37.00;;;;;;1565469;74;715;-67
2022/07/07 08:51:12;;;;;;;;;;;25.70;37.00;;;;;;1561695;75;1953;-65
2022/07/07 08:53:14;;;;;;;;;;;25.80;37.00;;;;;;1576107;75;611;-65
2022/07/07 08:55:16;;;;;;;;;;;25.80;36.90;;;;;;1564933;75;1153;-65
2022/07/07 08:57:18;;;;;;;;;;;25.80;36.90;;;;;;1580553;75;696;-65
2022/07/07 08:59:20;;;;;;;;;;;25.80;36.80;;;;;;1577402;75;558;-65
2022/07/07 09:01:22;;;;;;;;;;;25.80;36.70;;;;;;1583172;74;726;-65
2022/07/07 09:03:24;;;;;;;;;;;25.80;36.70;;;;;;1566427;74;737;-64
2022/07/07 09:05:26;;;;;;;;;;;25.80;36.60;;;;;;1573953;75;1183;-65
2022/07/07 09:07:29;;;;;;;;;;;25.80;36.50;;;;;;1570786;74;708;-66
2022/07/07 09:09:52;;;;;;;;;;;25.80;36.50;;;;;;1565463;75;1363;-64
2022/07/07 09:11:52;;;;;;;;;;;25.80;36.50;;;;;;1570385;75;1550;-65
2022/07/07 09:14:10;;;;;;;;;;;25.80;36.50;;;;;;1552776;76;1114;-66
2022/07/07 09:16:15;;;;;;;;;;;25.70;36.60;;;;;;1573059;75;1172;-65
2022/07/07 09:18:33;;;;;;;;;;;25.70;36.50;;;;;;1565742;74;710;-64
2022/07/07 09:20:36;;;;;;;;;;;25.70;36.40;;;;;;1577312;75;722;-65
2022/07/07 09:22:55;;;;;;;;;;;25.80;36.40;;;;;;1580579;75;774;-66
2022/07/07 09:24:57;;;;;;;;;;;25.70;36.50;;;;;;1573461;74;1347;-66
2022/07/07 09:26:58;;;;;;;;;;;25.70;36.40;;;;;;1569302;74;1104;-66
2022/07/07 09:29:00;;;;;;;;;;;25.80;36.40;;;;;;1576784;74;714;-66
2022/07/07 09:31:02;;;;;;;;;;;25.80;36.40;;;;;;1576680;75;1930;-65
2022/07/07 09:33:08;;;;;;;;;;;25.70;36.40;;;;;;1576588;75;729;-65
2022/07/07 09:38:13;;;;;;;;;;;25.80;36.40;;;;;;1569502;74;1709;-64
2022/07/07 09:39:40;;;;;;;;;;;25.70;36.50;;;;;;1567414;74;1640;-64
2022/07/07 09:41:42;;;;;;;;;;;25.70;36.40;;;;;;1574291;75;1064;-65
2022/07/07 09:43:49;;;;;;;;;;;25.70;36.40;;;;;;1574238;75;747;-65
2022/07/07 09:46:07;;;;;;;;;;;25.70;36.40;;;;;;1577041;75;1280;-65
2022/07/07 09:48:09;;;;;;;;;;;25.70;36.30;;;;;;1574744;74;749;-65
2022/07/07 09:50:15;;;;;;;;;;;25.70;36.30;;;;;;1576724;74;1914;-66
2022/07/07 09:52:17;;;;;;;;;;;25.70;36.30;;;;;;1584799;74;755;-65
2022/07/07 09:54:19;;;;;;;;;;;25.70;36.20;;;;;;1563999;75;590;-64
2022/07/07 09:56:21;;;;;;;;;;;25.70;36.20;;;;;;1566474;75;1151;-64
2022/07/07 09:58:23;;;;;;;;;;;25.70;36.10;;;;;;1571159;74;705;-66
2022/07/07 10:00:25;;;;;;;;;;;25.70;36.10;;;;;;1575419;74;692;-64
2022/07/07 10:02:29;;;;;;;;;;;25.70;36.10;;;;;;1565895;75;587;-65
2022/07/07 10:04:31;;;;;;;;;;;25.70;36.20;;;;;;1568717;75;778;-65
2022/07/07 10:06:33;;;;;;;;;;;25.70;36.10;;;;;;1577004;74;1141;-66
2022/07/07 10:08:35;;;;;;;;;;;25.80;36.10;;;;;;1575868;75;733;-64
2022/07/07 10:10:37;;;;;;;;;;;25.70;36.00;;;;;;1578637;75;1930;-65
2022/07/07 10:12:41;;;;;;;;;;;25.70;36.10;;;;;;1573690;74;742;-65
2022/07/07 10:14:43;;;;;;;;;;;25.80;36.10;;;;;;1578536;74;1441;-64
2022/07/07 10:16:46;;;;;;;;;;;25.70;36.10;;;;;;1565247;75;1129;-64
2022/07/07 10:18:48;;;;;;;;;;;25.70;36.00;;;;;;1571706;74;706;-68
2022/07/07 10:20:49;;;;;;;;;;;25.70;36.00;;;;;;1562545;75;812;-64
2022/07/07 10:22:51;;;;;;;;;;;25.70;36.00;;;;;;1577913;74;1591;-64
2022/07/07 10:24:55;;;;;;;;;;;25.70;36.00;;;;;;1584482;74;702;-64
2022/07/07 10:26:57;;;;;;;;;;;25.70;36.00;;;;;;1570161;74;1706;-65
2022/07/07 10:28:59;;;;;;;;;;;25.70;36.00;;;;;;1583328;74;719;-63
2022/07/07 10:31:20;;;;;;;;;;;25.70;36.00;;;;;;1577802;74;1922;-63
2022/07/07 10:33:22;;;;;;;;;;;25.70;36.00;;;;;;1576191;74;694;-63
2022/07/07 10:35:25;;;;;;;;;;;25.70;36.10;;;;;;1569743;74;1137;-66
2022/07/07 10:37:27;;;;;;;;;;;25.70;36.10;;;;;;1578426;75;710;-64
2022/07/07 10:39:32;;;;;;;;;;;25.70;36.10;;;;;;1579135;74;682;-64
2022/07/07 10:41:34;;;;;;;;;;;25.70;36.20;;;;;;1564725;75;813;-65
2022/07/07 10:43:37;;;;;;;;;;;25.70;36.20;;;;;;1578642;75;723;-62
2022/07/07 10:45:46;;;;;;;;;;;25.70;36.20;;;;;;1572512;74;1824;-64
2022/07/07 10:47:48;;;;;;;;;;;25.70;36.30;;;;;;1565962;75;765;-64
2022/07/07 10:49:51;;;;;;;;;;;25.70;36.30;;;;;;1578063;75;721;-64
2022/07/07 10:51:53;;;;;;;;;;;25.70;36.40;;;;;;1579601;75;1919;-64
2022/07/07 10:54:03;;;;;;;;;;;25.70;36.40;;;;;;1577384;75;821;-63
2022/07/07 10:56:05;;;;;;;;;;;25.70;36.40;;;;;;1574440;74;1127;-65
2022/07/07 10:58:08;;;;;;;;;;;25.70;36.40;;;;;;1581428;74;705;-63
2022/07/07 11:00:14;;;;;;;;;;;25.70;36.50;;;;;;1579513;75;689;-63
2022/07/07 11:02:16;;;;;;;;;;;25.70;36.50;;;;;;1577806;74;705;-65
2022/07/07 11:04:36;;;;;;;;;;;25.70;36.50;;;;;;1574593;75;704;-66
2022/07/07 11:06:42;;;;;;;;;;;25.70;36.50;;;;;;1577880;74;1134;-65
2022/07/07 11:08:46;;;;;;;;;;;25.70;36.50;;;;;;1552606;74;1709;-65
2022/07/07 11:10:49;;;;;;;;;;;25.70;36.50;;;;;;1574444;75;1931;-64
2022/07/07 11:12:53;;;;;;;;;;;25.70;36.60;;;;;;1576163;75;675;-64
2022/07/07 11:15:13;;;;;;;;;;;25.70;36.60;;;;;;1566420;75;644;-66
2022/07/07 11:17:23;;;;;;;;;;;25.70;36.60;;;;;;1571008;74;1500;-65
2022/07/07 11:19:27;;;;;;;;;;;25.70;36.70;;;;;;1572672;75;708;-64
2022/07/07 11:21:36;;;;;;;;;;;25.70;36.80;;;;;;1576108;75;1817;-65
2022/07/07 11:23:47;;;;;;;;;;;25.70;36.80;;;;;;1576279;74;762;-64
2022/07/07 11:25:52;;;;;;;;;;;25.70;36.80;;;;;;1574727;75;1070;-63
2022/07/07 11:27:53;;;;;;;;;;;25.70;36.80;;;;;;1555698;75;699;-65
2022/07/07 11:29:57;;;;;;;;;;;25.70;36.80;;;;;;1553281;76;1609;-66
2022/07/07 11:32:00;;;;;;;;;;;25.70;36.80;;;;;;1577539;73;1926;-65
2022/07/07 11:34:02;;;;;;;;;;;25.70;36.80;;;;;;1549201;75;688;-64
2022/07/07 11:36:11;;;;;;;;;;;25.70;36.80;;;;;;1574840;73;1096;-65
2022/07/07 11:38:13;;;;;;;;;;;25.60;36.70;;;;;;1582302;73;721;-65
2022/07/07 11:40:16;;;;;;;;;;;25.70;36.70;;;;;;1585016;73;713;-65
2022/07/07 11:42:18;;;;;;;;;;;25.60;36.70;;;;;;1583137;73;820;-64
2022/07/07 11:44:21;;;;;;;;;;;25.70;36.70;;;;;;1578748;73;779;-64
2022/07/07 11:46:23;;;;;;;;;;;25.70;36.70;;;;;;1583253;73;1198;-65
2022/07/07 11:48:27;;;;;;;;;;;25.70;36.70;;;;;;1585852;73;707;-64
2022/07/07 11:50:31;;;;;;;;;;;25.70;36.80;;;;;;1586724;73;1991;-67
2022/07/07 11:52:33;;;;;;;;;;;25.70;36.80;;;;;;1584193;73;1917;-64
2022/07/07 11:54:36;;;;;;;;;;;25.70;36.80;;;;;;1592203;73;698;-65
2022/07/07 11:56:38;;;;;;;;;;;25.70;36.80;;;;;;1571654;73;1845;-64
2022/07/07 11:58:41;;;;;;;;;;;25.70;36.80;;;;;;1581496;74;749;-63
2022/07/07 12:00:43;;;;;;;;;;;25.70;36.80;;;;;;1580801;73;1769;-63
2022/07/07 12:02:46;;;;;;;;;;;25.70;36.80;;;;;;1562853;74;728;-65
2022/07/07 12:04:49;;;;;;;;;;;25.70;36.80;;;;;;1571102;74;719;-64
2022/07/07 12:06:51;;;;;;;;;;;25.70;36.80;;;;;;1563591;75;1333;-64
2022/07/07 12:08:53;;;;;;;;;;;25.70;36.80;;;;;;1558341;75;679;-64
2022/07/07 12:10:55;;;;;;;;;;;25.70;36.80;;;;;;1599939;74;1900;-64
2022/07/07 12:13:02;;;;;;;;;;;25.70;36.80;;;;;;1576247;74;704;-63
2022/07/07 12:15:07;;;;;;;;;;;25.70;36.90;;;;;;1563347;75;1696;-65